Time;durP1;ratioP1;P1;durP2;ratioP2;P2;SDS_P1;SDS_P2;PMS_P1;PMS_P2;Temp;Humidity;BMP_temperature;BMP_pressure;BME280_temperature;BME280_humidity;BME280_pressure;Samples;Min_cycle;Max_cycle;Signal;HPM_P1;HPM_P2
2022/09/09 00:00:26;;;;;;;;;;;24.30;59.10;;;;;;6246985;28;19958;-46
2022/09/09 00:03:31;;;;;;;;;;;23.80;58.80;;;;;;6248924;28;20729;-44
2022/09/09 00:06:35;;;;;;;;;;;24.10;59.00;;;;;;6245231;28;19935;-44
2022/09/09 00:09:41;;;;;;;;;;;23.80;58.90;;;;;;6230889;28;20049;-44
2022/09/09 00:12:48;;;;;;;;;;;24.00;59.00;;;;;;6249585;28;19939;-42
2022/09/09 00:15:56;;;;;;;;;;;24.20;59.10;;;;;;6244768;28;19937;-42
2022/09/09 00:19:01;;;;;;;;;;;23.90;59.00;;;;;;6253467;28;19985;-42
2022/09/09 00:22:08;;;;;;;;;;;23.90;59.00;;;;;;6251000;28;19935;-43
2022/09/09 00:25:11;;;;;;;;;;;24.00;59.10;;;;;;6251704;28;20758;-42
2022/09/09 00:28:18;;;;;;;;;;;23.80;58.90;;;;;;6253151;28;19935;-43
2022/09/09 00:31:22;;;;;;;;;;;24.10;59.10;;;;;;6251312;28;20051;-41
2022/09/09 00:34:26;;;;;;;;;;;24.10;59.20;;;;;;6234253;28;19928;-45
2022/09/09 00:37:31;;;;;;;;;;;24.10;59.20;;;;;;6228906;28;19931;-43
2022/09/09 00:40:33;;;;;;;;;;;23.90;59.00;;;;;;6228566;28;19929;-45
2022/09/09 00:43:36;;;;;;;;;;;24.00;59.10;;;;;;6251129;28;19960;-43
2022/09/09 00:46:45;;;;;;;;;;;24.10;59.10;;;;;;6228893;28;19990;-43
2022/09/09 00:49:55;;;;;;;;;;;23.80;59.00;;;;;;6247396;28;21620;-42
2022/09/09 00:53:07;;;;;;;;;;;24.00;59.10;;;;;;6251199;28;19932;-42
2022/09/09 00:56:13;;;;;;;;;;;23.90;59.10;;;;;;6252844;28;19938;-43
2022/09/09 00:59:20;;;;;;;;;;;23.70;58.90;;;;;;6243356;28;19928;-43
2022/09/09 01:02:27;;;;;;;;;;;23.70;59.00;;;;;;6240352;28;19945;-43
2022/09/09 01:05:34;;;;;;;;;;;23.80;59.00;;;;;;6237970;28;20815;-43
2022/09/09 01:08:45;;;;;;;;;;;24.00;59.10;;;;;;6224434;28;19939;-45
2022/09/09 01:11:52;;;;;;;;;;;23.80;59.10;;;;;;6242344;28;20389;-40
2022/09/09 01:14:57;;;;;;;;;;;24.10;59.20;;;;;;6222331;28;20713;-42
2022/09/09 01:18:01;;;;;;;;;;;24.00;59.10;;;;;;6246952;28;20047;-41
2022/09/09 01:21:08;;;;;;;;;;;24.00;59.20;;;;;;6230736;28;20030;-44
2022/09/09 01:24:19;;;;;;;;;;;23.70;59.00;;;;;;6246986;28;20009;-45
2022/09/09 01:27:33;;;;;;;;;;;23.90;59.10;;;;;;6233278;28;20246;-45
2022/09/09 01:30:35;;;;;;;;;;;23.70;59.00;;;;;;6250377;28;19928;-43
2022/09/09 01:33:37;;;;;;;;;;;23.70;59.00;;;;;;6250337;28;20383;-43
2022/09/09 01:36:42;;;;;;;;;;;24.00;59.20;;;;;;6247366;28;20363;-46
2022/09/09 01:39:44;;;;;;;;;;;23.60;59.00;;;;;;6239350;28;19928;-43
2022/09/09 01:42:50;;;;;;;;;;;23.80;59.10;;;;;;6227391;28;20661;-41
2022/09/09 01:45:53;;;;;;;;;;;24.00;59.20;;;;;;6239393;28;20390;-43
2022/09/09 01:48:56;;;;;;;;;;;23.90;59.10;;;;;;6226111;28;19964;-43
2022/09/09 01:51:58;;;;;;;;;;;23.90;59.20;;;;;;6241010;28;19932;-44
2022/09/09 01:55:09;;;;;;;;;;;23.70;59.10;;;;;;6243101;28;19928;-41
2022/09/09 01:58:23;;;;;;;;;;;23.70;59.10;;;;;;6242287;28;20337;-44
2022/09/09 02:01:36;;;;;;;;;;;23.60;59.10;;;;;;6243589;28;19928;-42
2022/09/09 02:04:40;;;;;;;;;;;23.90;59.20;;;;;;6242783;28;19932;-42
2022/09/09 02:07:47;;;;;;;;;;;23.70;59.10;;;;;;6245111;28;20225;-46
2022/09/09 02:11:06;;;;;;;;;;;24.00;59.30;;;;;;6240021;28;20380;-43
2022/09/09 02:14:20;;;;;;;;;;;23.50;59.00;;;;;;6242765;28;20229;-42
2022/09/09 02:17:26;;;;;;;;;;;23.90;59.20;;;;;;6240156;28;20634;-41
2022/09/09 02:20:35;;;;;;;;;;;23.90;59.20;;;;;;6243103;28;20100;-43
2022/09/09 02:23:39;;;;;;;;;;;23.90;59.20;;;;;;6228196;28;20343;-40
2022/09/09 02:26:45;;;;;;;;;;;23.70;59.20;;;;;;6243250;28;20306;-43
2022/09/09 02:29:51;;;;;;;;;;;23.60;59.10;;;;;;6243459;28;20140;-43
2022/09/09 02:32:58;;;;;;;;;;;23.90;59.20;;;;;;6240876;28;20316;-42
2022/09/09 02:36:16;;;;;;;;;;;23.50;59.00;;;;;;6255648;28;19939;-44
2022/09/09 02:39:19;;;;;;;;;;;23.40;58.90;;;;;;6257521;28;20820;-44
2022/09/09 02:42:22;;;;;;;;;;;23.70;59.10;;;;;;6239650;28;20064;-44
2022/09/09 02:45:29;;;;;;;;;;;23.40;58.90;;;;;;6240452;28;19932;-45
2022/09/09 02:48:36;;;;;;;;;;;23.60;59.00;;;;;;6235425;28;19932;-43
2022/09/09 02:51:45;;;;;;;;;;;24.00;59.80;;;;;;6256068;28;19932;-45
2022/09/09 02:54:50;;;;;;;;;;;23.90;59.20;;;;;;6255106;28;20000;-46
2022/09/09 02:57:52;;;;;;;;;;;23.60;59.00;;;;;;6257567;28;19984;-42
2022/09/09 03:00:57;;;;;;;;;;;23.90;59.20;;;;;;6255687;28;20791;-44
2022/09/09 03:03:58;;;;;;;;;;;23.70;59.10;;;;;;6257682;28;20976;-47
2022/09/09 03:06:59;;;;;;;;;;;23.90;59.20;;;;;;6253217;28;19939;-44
2022/09/09 03:10:01;;;;;;;;;;;23.70;59.10;;;;;;6257290;28;19983;-47
2022/09/09 03:13:04;;;;;;;;;;;23.80;59.20;;;;;;6255658;28;20931;-43
2022/09/09 03:16:09;;;;;;;;;;;23.50;59.00;;;;;;6255526;28;19925;-45
2022/09/09 03:19:18;;;;;;;;;;;23.70;59.70;;;;;;6256608;28;19929;-46
2022/09/09 03:22:20;;;;;;;;;;;23.80;59.10;;;;;;6253823;28;20007;-47
2022/09/09 03:25:23;;;;;;;;;;;23.60;59.10;;;;;;6254463;28;20047;-45
2022/09/09 03:28:30;;;;;;;;;;;23.60;59.00;;;;;;6231679;28;20029;-41
2022/09/09 03:31:35;;;;;;;;;;;23.90;59.20;;;;;;6252964;28;21027;-45
2022/09/09 03:34:38;;;;;;;;;;;23.50;59.00;;;;;;6234208;28;19935;-45
2022/09/09 03:37:41;;;;;;;;;;;23.90;59.20;;;;;;6251433;28;19932;-42
2022/09/09 03:40:49;;;;;;;;;;;23.90;59.30;;;;;;6248662;28;20235;-44
2022/09/09 03:43:50;;;;;;;;;;;23.40;59.00;;;;;;6251686;28;19936;-41
2022/09/09 03:46:53;;;;;;;;;;;23.70;59.20;;;;;;6254369;28;20058;-42
2022/09/09 03:49:58;;;;;;;;;;;24.00;59.30;;;;;;6254660;28;20795;-44
2022/09/09 03:53:00;;;;;;;;;;;23.90;59.20;;;;;;6256118;28;19940;-47
2022/09/09 03:56:02;;;;;;;;;;;24.10;59.30;;;;;;6250224;28;20363;-43
2022/09/09 03:59:05;;;;;;;;;;;23.90;59.20;;;;;;6254771;28;20180;-45
2022/09/09 04:02:07;;;;;;;;;;;23.80;59.30;;;;;;6253427;28;19925;-46
2022/09/09 04:05:09;;;;;;;;;;;23.40;59.00;;;;;;6251616;28;21196;-43
2022/09/09 04:08:14;;;;;;;;;;;23.90;59.20;;;;;;6253618;28;19964;-44
2022/09/09 04:11:16;;;;;;;;;;;23.50;59.00;;;;;;6250504;28;20767;-42
2022/09/09 04:14:18;;;;;;;;;;;23.60;59.10;;;;;;6251213;28;20829;-43
2022/09/09 04:17:24;;;;;;;;;;;23.50;59.00;;;;;;6253511;28;19924;-44
2022/09/09 04:20:25;;;;;;;;;;;23.90;59.30;;;;;;6251373;28;19932;-46
2022/09/09 04:23:29;;;;;;;;;;;24.00;59.30;;;;;;6249962;28;19932;-44
2022/09/09 04:26:31;;;;;;;;;;;23.60;59.00;;;;;;6249456;28;19971;-44
2022/09/09 04:29:35;;;;;;;;;;;23.90;59.20;;;;;;6250426;28;19925;-47
2022/09/09 04:32:37;;;;;;;;;;;23.80;59.20;;;;;;6249236;28;20868;-44
2022/09/09 04:35:39;;;;;;;;;;;23.50;59.00;;;;;;6249658;28;20062;-43
2022/09/09 04:38:40;;;;;;;;;;;23.90;59.20;;;;;;6249213;28;21063;-43
2022/09/09 04:41:41;;;;;;;;;;;23.40;59.00;;;;;;6247511;28;19932;-44
2022/09/09 04:44:45;;;;;;;;;;;23.80;59.20;;;;;;6248519;28;20056;-42
2022/09/09 04:47:47;;;;;;;;;;;23.80;59.20;;;;;;6242805;28;19936;-43
2022/09/09 04:51:01;;;;;;;;;;;23.80;59.30;;;;;;6249179;28;19924;-46
2022/09/09 04:54:03;;;;;;;;;;;23.70;59.10;;;;;;6250172;28;19939;-46
2022/09/09 04:57:06;;;;;;;;;;;23.60;59.20;;;;;;6247722;28;19925;-44
2022/09/09 05:00:08;;;;;;;;;;;23.40;59.00;;;;;;6247031;28;19928;-43
2022/09/09 05:03:13;;;;;;;;;;;23.80;59.20;;;;;;6247408;28;19928;-44
2022/09/09 05:06:16;;;;;;;;;;;23.40;59.00;;;;;;6248129;28;19940;-42
2022/09/09 05:09:17;;;;;;;;;;;23.60;59.10;;;;;;6253024;28;20058;-45
2022/09/09 05:12:20;;;;;;;;;;;23.60;59.10;;;;;;6246800;28;19928;-44
2022/09/09 05:15:25;;;;;;;;;;;23.90;59.30;;;;;;6250416;28;20407;-43
2022/09/09 05:18:27;;;;;;;;;;;23.70;59.20;;;;;;6251081;28;19939;-46
2022/09/09 05:21:30;;;;;;;;;;;23.70;59.20;;;;;;6247473;28;19934;-43
2022/09/09 05:24:33;;;;;;;;;;;23.40;59.00;;;;;;6249876;28;19933;-46
2022/09/09 05:27:35;;;;;;;;;;;23.40;59.00;;;;;;6251043;28;19931;-44
2022/09/09 05:30:36;;;;;;;;;;;23.60;59.10;;;;;;6249082;28;19936;-46
2022/09/09 05:33:41;;;;;;;;;;;23.50;59.10;;;;;;6245446;28;20055;-46
2022/09/09 05:36:42;;;;;;;;;;;23.50;59.10;;;;;;6245907;28;21048;-49
2022/09/09 05:39:44;;;;;;;;;;;23.40;59.00;;;;;;6244198;28;20847;-44
2022/09/09 05:42:46;;;;;;;;;;;23.70;59.20;;;;;;6248026;28;19932;-45
2022/09/09 05:45:47;;;;;;;;;;;23.70;59.30;;;;;;6246559;28;20902;-47
2022/09/09 05:48:51;;;;;;;;;;;23.30;59.00;;;;;;6240832;28;19928;-46
2022/09/09 05:51:54;;;;;;;;;;;23.60;59.20;;;;;;6226727;28;19938;-44
2022/09/09 05:54:56;;;;;;;;;;;23.30;59.00;;;;;;6236554;28;19958;-46
2022/09/09 05:58:01;;;;;;;;;;;23.70;59.30;;;;;;6233056;28;19982;-43
2022/09/09 06:01:03;;;;;;;;;;;23.40;59.00;;;;;;6231914;28;19936;-44
2022/09/09 06:04:07;;;;;;;;;;;23.60;59.10;;;;;;6234398;28;19944;-49
2022/09/09 06:07:08;;;;;;;;;;;23.50;59.10;;;;;;6221910;28;20580;-44
2022/09/09 06:10:11;;;;;;;;;;;23.40;59.10;;;;;;6231660;28;19932;-44
2022/09/09 06:13:13;;;;;;;;;;;23.90;59.30;;;;;;6232317;28;19939;-44
2022/09/09 06:16:17;;;;;;;;;;;23.40;59.00;;;;;;6228286;28;21245;-43
2022/09/09 06:19:20;;;;;;;;;;;23.30;58.90;;;;;;6229748;28;19929;-46
2022/09/09 06:22:22;;;;;;;;;;;23.70;59.10;;;;;;6228395;28;19932;-46
2022/09/09 06:25:24;;;;;;;;;;;23.90;59.20;;;;;;6185814;28;20021;-44
2022/09/09 06:28:26;;;;;;;;;;;23.70;59.00;;;;;;6213907;28;19933;-43
2022/09/09 06:31:30;;;;;;;;;;;23.80;59.00;;;;;;6194420;28;21236;-47
2022/09/09 06:34:36;;;;;;;;;;;23.60;58.80;;;;;;6185766;28;20061;-40
2022/09/09 06:37:37;;;;;;;;;;;23.70;58.90;;;;;;6194090;28;21098;-42
2022/09/09 06:40:39;;;;;;;;;;;23.70;58.90;;;;;;6183648;28;19979;-43
2022/09/09 06:43:42;;;;;;;;;;;23.70;59.00;;;;;;6195055;28;19932;-43
2022/09/09 06:46:44;;;;;;;;;;;23.50;58.90;;;;;;6189262;28;19936;-42
2022/09/09 06:49:46;;;;;;;;;;;23.80;59.20;;;;;;6174436;28;21238;-42
2022/09/09 06:52:51;;;;;;;;;;;23.80;59.20;;;;;;6168972;28;21773;-43
2022/09/09 06:55:54;;;;;;;;;;;23.70;59.20;;;;;;6155806;28;19939;-45
2022/09/09 06:58:56;;;;;;;;;;;23.80;59.30;;;;;;6143180;28;20097;-41
2022/09/09 07:02:01;;;;;;;;;;;23.90;59.20;;;;;;6100096;28;20001;-42
2022/09/09 07:05:04;;;;;;;;;;;23.60;59.00;;;;;;6111709;28;19932;-42
2022/09/09 07:08:06;;;;;;;;;;;23.80;59.10;;;;;;6126560;28;20010;-41
2022/09/09 07:11:08;;;;;;;;;;;23.60;58.90;;;;;;6120403;28;20851;-40
2022/09/09 07:14:15;;;;;;;;;;;24.00;58.90;;;;;;6120159;28;19932;-42
2022/09/09 07:17:20;;;;;;;;;;;23.70;58.70;;;;;;6093044;28;19932;-42
2022/09/09 07:20:22;;;;;;;;;;;23.90;58.70;;;;;;6075576;28;20020;-41
2022/09/09 07:23:25;;;;;;;;;;;24.00;58.70;;;;;;6087109;28;19932;-41
2022/09/09 07:26:28;;;;;;;;;;;23.90;58.60;;;;;;6124240;28;19939;-41
2022/09/09 07:29:30;;;;;;;;;;;24.00;58.70;;;;;;6086571;28;20021;-40
2022/09/09 07:32:32;;;;;;;;;;;24.00;58.50;;;;;;6079870;28;21724;-42
2022/09/09 07:35:35;;;;;;;;;;;24.00;58.50;;;;;;6076168;28;20084;-43
2022/09/09 07:38:38;;;;;;;;;;;24.10;58.50;;;;;;6096594;28;19939;-40
2022/09/09 07:41:41;;;;;;;;;;;23.70;58.30;;;;;;6062791;28;19997;-42
2022/09/09 07:44:42;;;;;;;;;;;24.00;58.50;;;;;;6068525;28;20067;-43
2022/09/09 07:47:48;;;;;;;;;;;23.90;58.50;;;;;;6088589;28;19939;-43
2022/09/09 07:50:51;;;;;;;;;;;24.10;58.60;;;;;;6100835;28;20251;-42
2022/09/09 07:53:53;;;;;;;;;;;23.80;58.40;;;;;;6087428;28;19932;-41
2022/09/09 07:56:55;;;;;;;;;;;24.10;58.60;;;;;;6081449;28;20021;-43
2022/09/09 08:00:00;;;;;;;;;;;24.10;58.60;;;;;;6079581;28;19985;-42
2022/09/09 08:03:03;;;;;;;;;;;24.10;58.70;;;;;;6072482;28;20455;-43
2022/09/09 08:06:07;;;;;;;;;;;24.30;58.60;;;;;;6069853;28;21177;-43
2022/09/09 08:09:09;;;;;;;;;;;23.80;58.30;;;;;;6066123;28;20165;-40
2022/09/09 08:12:12;;;;;;;;;;;23.80;58.30;;;;;;6052996;28;20841;-41
2022/09/09 08:15:14;;;;;;;;;;;24.00;58.40;;;;;;6069113;28;23497;-41
2022/09/09 08:18:15;;;;;;;;;;;24.00;58.40;;;;;;6065158;28;19970;-44
2022/09/09 08:21:21;;;;;;;;;;;24.30;58.60;;;;;;6090537;28;19939;-44
2022/09/09 08:24:23;;;;;;;;;;;24.20;58.50;;;;;;6101808;28;28767;-41
2022/09/09 08:27:26;;;;;;;;;;;24.00;58.40;;;;;;6113624;28;20070;-44
2022/09/09 08:30:29;;;;;;;;;;;24.10;58.40;;;;;;6121408;28;19932;-45
2022/09/09 08:33:31;;;;;;;;;;;24.10;58.40;;;;;;6129812;28;21036;-42
2022/09/09 08:36:34;;;;;;;;;;;24.20;59.00;;;;;;6097494;28;21008;-42
2022/09/09 08:39:36;;;;;;;;;;;24.20;58.40;;;;;;6040900;28;21277;-44
2022/09/09 08:42:41;;;;;;;;;;;22.40;57.50;;;;;;6086442;28;21969;-42
2022/09/09 08:45:47;;;;;;;;;;;24.20;58.40;;;;;;6077772;28;20068;-42
2022/09/09 08:48:52;;;;;;;;;;;24.10;58.40;;;;;;6115241;28;19939;-42
2022/09/09 08:51:59;;;;;;;;;;;24.20;58.40;;;;;;6123860;28;21956;-41
2022/09/09 08:55:04;;;;;;;;;;;24.20;58.30;;;;;;6114058;28;19932;-44
2022/09/09 08:58:09;;;;;;;;;;;24.10;58.20;;;;;;6124483;28;20005;-42
2022/09/09 09:01:23;;;;;;;;;;;24.70;58.60;;;;;;6106854;28;21735;-42
2022/09/09 09:04:37;;;;;;;;;;;24.20;58.30;;;;;;6090089;28;20000;-42
2022/09/09 09:07:47;;;;;;;;;;;24.50;58.50;;;;;;6067810;28;19932;-42
2022/09/09 09:10:53;;;;;;;;;;;24.10;58.80;;;;;;6070000;28;20376;-41
2022/09/09 09:14:02;;;;;;;;;;;24.20;58.30;;;;;;6074960;28;19997;-41
2022/09/09 09:17:06;;;;;;;;;;;23.90;58.10;;;;;;6113111;28;19979;-41
2022/09/09 09:20:12;;;;;;;;;;;23.80;58.00;;;;;;6090386;28;19937;-43
2022/09/09 09:23:17;;;;;;;;;;;23.90;58.00;;;;;;6063043;28;19932;-40
2022/09/09 09:26:19;;;;;;;;;;;23.90;58.10;;;;;;6078217;28;19932;-40
2022/09/09 09:29:21;;;;;;;;;;;24.30;58.30;;;;;;6114247;28;19939;-40
2022/09/09 09:32:25;;;;;;;;;;;24.10;58.10;;;;;;6119212;28;20997;-41
2022/09/09 09:35:26;;;;;;;;;;;24.30;58.20;;;;;;6109365;28;19939;-40
2022/09/09 09:38:29;;;;;;;;;;;24.10;58.20;;;;;;6126175;28;19936;-40
2022/09/09 09:41:57;;;;;;;;;;;24.10;58.10;;;;;;6095356;28;21207;-40
2022/09/09 09:45:08;;;;;;;;;;;24.20;58.10;;;;;;6091483;28;20021;-41
2022/09/09 09:48:10;;;;;;;;;;;24.20;58.00;;;;;;6123729;28;19943;-42
2022/09/09 09:51:23;;;;;;;;;;;24.00;57.90;;;;;;6121747;28;20754;-41
2022/09/09 09:54:27;;;;;;;;;;;24.20;58.00;;;;;;6105574;28;19939;-43
2022/09/09 09:57:33;;;;;;;;;;;24.10;58.00;;;;;;6110043;28;19932;-39
2022/09/09 10:00:48;;;;;;;;;;;24.30;58.10;;;;;;6120122;28;19936;-39
2022/09/09 10:03:51;;;;;;;;;;;24.20;57.90;;;;;;6102600;28;21878;-42
2022/09/09 10:06:52;;;;;;;;;;;24.50;58.10;;;;;;6061412;28;19932;-44
2022/09/09 10:09:55;;;;;;;;;;;24.50;58.10;;;;;;6116300;28;20135;-43
2022/09/09 10:13:03;;;;;;;;;;;24.20;57.90;;;;;;6096211;28;19932;-42
2022/09/09 10:16:15;;;;;;;;;;;24.30;57.90;;;;;;6098066;28;19940;-46
2022/09/09 10:19:19;;;;;;;;;;;24.30;57.90;;;;;;6111051;28;20511;-43
2022/09/09 10:22:25;;;;;;;;;;;24.30;58.00;;;;;;6105589;28;20996;-42
2022/09/09 10:25:32;;;;;;;;;;;24.60;58.00;;;;;;6089639;28;20055;-43
2022/09/09 10:28:43;;;;;;;;;;;24.00;57.70;;;;;;6125196;28;19932;-45
2022/09/09 10:31:51;;;;;;;;;;;24.30;57.80;;;;;;6125091;28;19932;-43
2022/09/09 10:34:55;;;;;;;;;;;24.20;57.80;;;;;;6149617;28;19982;-43
2022/09/09 10:38:12;;;;;;;;;;;24.20;57.70;;;;;;6156248;28;21272;-43
2022/09/09 10:41:18;;;;;;;;;;;24.30;57.80;;;;;;6135824;28;19932;-45
2022/09/09 10:44:26;;;;;;;;;;;24.30;57.80;;;;;;6156292;28;19986;-42
2022/09/09 10:47:38;;;;;;;;;;;24.30;57.70;;;;;;6164997;28;19939;-44
2022/09/09 10:50:45;;;;;;;;;;;24.20;57.60;;;;;;6165218;28;19932;-43
2022/09/09 10:54:13;;;;;;;;;;;24.40;57.70;;;;;;6145509;28;20068;-44
2022/09/09 10:57:22;;;;;;;;;;;24.60;57.70;;;;;;6117188;28;19932;-45
2022/09/09 11:00:24;;;;;;;;;;;24.20;57.50;;;;;;6153840;28;19973;-43
2022/09/09 11:03:29;;;;;;;;;;;24.70;57.70;;;;;;6183346;28;20055;-47
2022/09/09 11:06:35;;;;;;;;;;;24.20;57.40;;;;;;6174299;28;19932;-42
2022/09/09 11:09:39;;;;;;;;;;;24.30;57.40;;;;;;6171572;28;19989;-45
2022/09/09 11:12:43;;;;;;;;;;;24.50;57.60;;;;;;6166973;28;20805;-40
2022/09/09 11:15:46;;;;;;;;;;;24.90;57.70;;;;;;6163827;28;20856;-41
2022/09/09 11:18:49;;;;;;;;;;;24.60;57.50;;;;;;6175302;28;19932;-43
2022/09/09 11:21:51;;;;;;;;;;;24.50;57.40;;;;;;6160317;28;19932;-41
2022/09/09 11:24:54;;;;;;;;;;;24.60;57.50;;;;;;6187093;28;19943;-41
2022/09/09 11:28:02;;;;;;;;;;;24.50;57.50;;;;;;6165543;28;19932;-43
2022/09/09 11:31:11;;;;;;;;;;;24.50;57.40;;;;;;6180754;28;19954;-40
2022/09/09 11:34:18;;;;;;;;;;;24.50;57.40;;;;;;6164802;28;19933;-43
2022/09/09 11:37:38;;;;;;;;;;;24.70;57.40;;;;;;6160074;28;19938;-41
2022/09/09 11:40:39;;;;;;;;;;;24.60;57.30;;;;;;6154584;28;19939;-43
2022/09/09 11:43:43;;;;;;;;;;;24.70;57.50;;;;;;6135923;28;20094;-39
2022/09/09 11:46:46;;;;;;;;;;;24.50;57.20;;;;;;6102624;28;19975;-40
2022/09/09 11:49:48;;;;;;;;;;;24.70;57.30;;;;;;6163896;28;20006;-41
2022/09/09 11:52:49;;;;;;;;;;;24.80;57.40;;;;;;6160302;28;20749;-42
2022/09/09 11:56:03;;;;;;;;;;;24.60;57.20;;;;;;6114953;28;19939;-42
2022/09/09 11:59:06;;;;;;;;;;;24.60;57.20;;;;;;6144415;28;20017;-41
2022/09/09 12:02:11;;;;;;;;;;;24.50;57.20;;;;;;6064701;28;20314;-41
2022/09/09 12:05:13;;;;;;;;;;;24.60;57.20;;;;;;6077220;28;19990;-41
2022/09/09 12:08:18;;;;;;;;;;;24.40;57.10;;;;;;6100845;28;19939;-40
2022/09/09 12:11:27;;;;;;;;;;;24.70;57.40;;;;;;6075815;28;19932;-41
2022/09/09 12:14:36;;;;;;;;;;;24.60;57.20;;;;;;6038215;28;20695;-42
2022/09/09 12:17:41;;;;;;;;;;;24.80;57.30;;;;;;6065526;28;19939;-40
2022/09/09 12:20:52;;;;;;;;;;;24.70;57.30;;;;;;6060097;28;21578;-42
2022/09/09 12:23:55;;;;;;;;;;;24.70;57.20;;;;;;6097988;28;19936;-41
2022/09/09 12:26:59;;;;;;;;;;;24.70;57.20;;;;;;6097071;28;20049;-41
2022/09/09 12:30:03;;;;;;;;;;;24.70;57.20;;;;;;6091629;28;20029;-42
2022/09/09 12:33:10;;;;;;;;;;;24.80;57.20;;;;;;6102198;28;20812;-41
2022/09/09 12:36:13;;;;;;;;;;;24.70;57.20;;;;;;6063499;28;20718;-44
2022/09/09 12:39:18;;;;;;;;;;;24.80;57.30;;;;;;6095653;28;19933;-43
2022/09/09 12:42:20;;;;;;;;;;;24.70;57.20;;;;;;6127450;28;20408;-41
2022/09/09 12:45:24;;;;;;;;;;;24.90;57.30;;;;;;6099242;28;19932;-41
2022/09/09 12:48:29;;;;;;;;;;;24.90;57.30;;;;;;6103719;28;20593;-40
2022/09/09 12:51:32;;;;;;;;;;;24.90;57.20;;;;;;6087432;28;21868;-42
2022/09/09 12:54:35;;;;;;;;;;;25.20;57.40;;;;;;6105166;28;20898;-40
2022/09/09 12:57:38;;;;;;;;;;;24.70;57.20;;;;;;6076944;28;20114;-40
2022/09/09 13:00:50;;;;;;;;;;;24.50;57.00;;;;;;6104396;28;20122;-40
2022/09/09 13:03:52;;;;;;;;;;;24.80;57.20;;;;;;6079824;28;19932;-41
2022/09/09 13:06:53;;;;;;;;;;;24.80;57.20;;;;;;6064261;28;19937;-40
2022/09/09 13:09:55;;;;;;;;;;;24.70;57.80;;;;;;6093010;28;19932;-41
2022/09/09 13:12:58;;;;;;;;;;;24.80;57.20;;;;;;6094145;28;21114;-40
2022/09/09 13:16:00;;;;;;;;;;;24.70;57.20;;;;;;6105648;28;19961;-42
2022/09/09 13:19:07;;;;;;;;;;;25.00;57.20;;;;;;6099414;28;19932;-41
2022/09/09 13:22:13;;;;;;;;;;;24.90;57.20;;;;;;6066286;28;20090;-40
2022/09/09 13:25:19;;;;;;;;;;;24.80;57.10;;;;;;6113261;28;20013;-41
2022/09/09 13:28:21;;;;;;;;;;;24.80;57.20;;;;;;6090046;28;21583;-41
2022/09/09 13:31:27;;;;;;;;;;;24.80;57.10;;;;;;6106460;28;21749;-42
2022/09/09 13:34:30;;;;;;;;;;;24.80;57.10;;;;;;6132220;28;22365;-42
2022/09/09 13:37:33;;;;;;;;;;;24.90;57.10;;;;;;6072502;28;19932;-42
2022/09/09 13:40:36;;;;;;;;;;;24.80;57.10;;;;;;6108794;28;19940;-42
2022/09/09 13:43:42;;;;;;;;;;;24.90;57.20;;;;;;6126322;28;19935;-43
2022/09/09 13:46:44;;;;;;;;;;;24.80;57.10;;;;;;6117043;28;20469;-43
2022/09/09 13:49:46;;;;;;;;;;;24.80;57.00;;;;;;6097261;28;20033;-41
2022/09/09 13:52:48;;;;;;;;;;;24.90;57.20;;;;;;6080744;28;20059;-43
2022/09/09 13:55:50;;;;;;;;;;;24.90;57.20;;;;;;6111231;28;20077;-43
2022/09/09 13:58:54;;;;;;;;;;;24.60;56.90;;;;;;6118927;28;19948;-40
2022/09/09 14:02:01;;;;;;;;;;;24.90;57.10;;;;;;6084033;28;19932;-42
2022/09/09 14:05:03;;;;;;;;;;;24.90;57.10;;;;;;6095339;28;20003;-41
2022/09/09 14:08:06;;;;;;;;;;;25.00;57.20;;;;;;6078585;28;19932;-43
2022/09/09 14:11:11;;;;;;;;;;;25.00;57.30;;;;;;6092639;28;20993;-39
2022/09/09 14:14:12;;;;;;;;;;;24.90;57.00;;;;;;6113976;28;21594;-40
2022/09/09 14:17:14;;;;;;;;;;;24.90;57.10;;;;;;6106651;28;22019;-40
2022/09/09 14:20:17;;;;;;;;;;;24.90;57.10;;;;;;6114412;28;19939;-42
2022/09/09 14:23:19;;;;;;;;;;;24.90;57.10;;;;;;6120032;28;21104;-39
2022/09/09 14:26:20;;;;;;;;;;;24.90;57.20;;;;;;6108604;28;19932;-41
2022/09/09 14:29:22;;;;;;;;;;;24.90;57.10;;;;;;6094598;28;20630;-40
2022/09/09 14:32:24;;;;;;;;;;;24.90;57.10;;;;;;6106809;28;19955;-42
2022/09/09 14:35:25;;;;;;;;;;;24.90;57.10;;;;;;6104762;28;21016;-40
2022/09/09 14:38:29;;;;;;;;;;;24.60;57.00;;;;;;6095060;28;19932;-41
2022/09/09 14:41:32;;;;;;;;;;;25.00;57.20;;;;;;6079474;28;21508;-42
2022/09/09 14:44:34;;;;;;;;;;;24.90;57.30;;;;;;6072933;28;20215;-40
2022/09/09 14:47:37;;;;;;;;;;;24.80;57.10;;;;;;6106972;28;20866;-43
2022/09/09 14:50:40;;;;;;;;;;;25.00;57.20;;;;;;6115701;28;20045;-44
2022/09/09 14:53:42;;;;;;;;;;;25.00;57.20;;;;;;6094366;28;19933;-43
2022/09/09 14:56:43;;;;;;;;;;;24.90;57.10;;;;;;6074933;28;19932;-43
2022/09/09 14:59:44;;;;;;;;;;;25.00;57.20;;;;;;6098823;28;19932;-43
2022/09/09 15:02:47;;;;;;;;;;;24.80;57.10;;;;;;6099615;28;19948;-44
2022/09/09 15:05:49;;;;;;;;;;;24.90;57.10;;;;;;6112602;28;21970;-40
2022/09/09 15:08:51;;;;;;;;;;;25.00;57.10;;;;;;6109701;28;19935;-43
2022/09/09 15:11:53;;;;;;;;;;;24.80;57.10;;;;;;6109496;28;19932;-44
2022/09/09 15:14:54;;;;;;;;;;;25.00;57.20;;;;;;6112231;28;19938;-42
2022/09/09 15:17:56;;;;;;;;;;;25.00;57.20;;;;;;6125361;28;20402;-40
2022/09/09 15:20:59;;;;;;;;;;;24.60;57.00;;;;;;6130926;28;19997;-42
2022/09/09 15:24:01;;;;;;;;;;;25.00;57.20;;;;;;6119269;28;19932;-43
2022/09/09 15:27:02;;;;;;;;;;;24.60;57.00;;;;;;6154519;28;19932;-41
2022/09/09 15:30:04;;;;;;;;;;;25.00;57.20;;;;;;6141658;28;19975;-41
2022/09/09 15:33:08;;;;;;;;;;;24.90;57.40;;;;;;6141416;28;20074;-41
2022/09/09 15:36:15;;;;;;;;;;;24.80;57.10;;;;;;6153282;28;21038;-42
2022/09/09 15:39:17;;;;;;;;;;;24.90;57.20;;;;;;6146614;28;19985;-40
2022/09/09 15:42:18;;;;;;;;;;;24.90;57.80;;;;;;6144483;28;20030;-40
2022/09/09 15:45:20;;;;;;;;;;;25.00;57.30;;;;;;6170398;28;19932;-44
2022/09/09 15:48:29;;;;;;;;;;;24.90;57.20;;;;;;6188396;28;19932;-40
2022/09/09 15:51:31;;;;;;;;;;;25.00;57.40;;;;;;6178460;28;19938;-40
2022/09/09 15:54:44;;;;;;;;;;;24.70;57.20;;;;;;6178673;28;20004;-42
2022/09/09 15:57:45;;;;;;;;;;;24.90;57.40;;;;;;6168076;28;19932;-42
2022/09/09 16:00:47;;;;;;;;;;;24.70;57.20;;;;;;6179570;28;20081;-42
2022/09/09 16:03:50;;;;;;;;;;;25.10;57.40;;;;;;6195041;28;20052;-42
2022/09/09 16:06:53;;;;;;;;;;;24.80;57.30;;;;;;6179850;28;21078;-40
2022/09/09 16:09:54;;;;;;;;;;;24.90;57.30;;;;;;6195233;28;20408;-42
2022/09/09 16:12:55;;;;;;;;;;;24.70;57.30;;;;;;6192960;28;19932;-43
2022/09/09 16:15:57;;;;;;;;;;;24.90;57.40;;;;;;6215955;28;21062;-42
2022/09/09 16:19:01;;;;;;;;;;;24.90;57.30;;;;;;6194160;28;20706;-42
2022/09/09 16:22:03;;;;;;;;;;;24.90;57.30;;;;;;6176390;28;20709;-42
2022/09/09 16:25:06;;;;;;;;;;;25.00;57.40;;;;;;6171089;28;19935;-40
2022/09/09 16:28:07;;;;;;;;;;;24.70;57.20;;;;;;6193336;28;19932;-40
2022/09/09 16:31:10;;;;;;;;;;;24.90;57.30;;;;;;6190095;28;19932;-43
2022/09/09 16:34:12;;;;;;;;;;;24.70;57.30;;;;;;6197745;28;19970;-41
2022/09/09 16:37:13;;;;;;;;;;;24.70;57.20;;;;;;6217913;28;22245;-43
2022/09/09 16:40:17;;;;;;;;;;;25.00;57.30;;;;;;6213341;28;19940;-41
2022/09/09 16:43:18;;;;;;;;;;;24.70;57.20;;;;;;6215312;28;19932;-42
2022/09/09 16:46:20;;;;;;;;;;;24.90;57.30;;;;;;6225666;28;20048;-42
2022/09/09 16:49:22;;;;;;;;;;;24.90;57.30;;;;;;6218756;28;19986;-42
2022/09/09 16:52:23;;;;;;;;;;;24.50;57.10;;;;;;6223537;28;19932;-45
2022/09/09 16:55:25;;;;;;;;;;;24.80;57.30;;;;;;6221320;28;19939;-43
2022/09/09 16:58:27;;;;;;;;;;;24.80;57.20;;;;;;6225396;28;21147;-44
2022/09/09 17:01:29;;;;;;;;;;;24.90;57.30;;;;;;6218542;28;20052;-43
2022/09/09 17:04:32;;;;;;;;;;;24.80;57.30;;;;;;6217988;28;19928;-43
2022/09/09 17:07:33;;;;;;;;;;;24.90;57.40;;;;;;6226622;28;19928;-48
2022/09/09 17:10:40;;;;;;;;;;;25.00;57.30;;;;;;6206573;28;20363;-41
2022/09/09 17:13:41;;;;;;;;;;;24.70;57.20;;;;;;6203452;28;22622;-41
2022/09/09 17:16:43;;;;;;;;;;;24.90;57.20;;;;;;6207783;28;20247;-41
2022/09/09 17:19:45;;;;;;;;;;;24.60;57.10;;;;;;6193117;28;20834;-41
2022/09/09 17:22:46;;;;;;;;;;;24.90;57.30;;;;;;6210873;28;20165;-41
2022/09/09 17:25:57;;;;;;;;;;;24.90;57.30;;;;;;6212771;28;20485;-43
2022/09/09 17:29:00;;;;;;;;;;;25.00;57.30;;;;;;6215616;28;20050;-41
2022/09/09 17:32:01;;;;;;;;;;;24.80;57.20;;;;;;6193631;28;20678;-42
2022/09/09 17:35:07;;;;;;;;;;;24.90;57.30;;;;;;6206755;28;20145;-45
2022/09/09 17:38:08;;;;;;;;;;;24.90;57.30;;;;;;6208007;28;20039;-41
2022/09/09 17:41:11;;;;;;;;;;;24.70;57.20;;;;;;6219205;28;19928;-40
2022/09/09 17:44:12;;;;;;;;;;;24.90;57.30;;;;;;6217565;28;20308;-43
2022/09/09 17:47:14;;;;;;;;;;;24.40;57.10;;;;;;6226223;28;19932;-43
2022/09/09 17:50:15;;;;;;;;;;;24.60;57.20;;;;;;6209980;28;20516;-41